createdAt,value
2023-05-05T00:01:03.404Z,68.98
2023-05-05T00:03:33.596Z,68.83
2023-05-05T00:06:01.798Z,68.80
2023-05-05T00:08:30.292Z,68.79
2023-05-05T00:10:58.451Z,68.57
2023-05-05T00:13:26.827Z,69.17
2023-05-05T00:15:55.416Z,69.16
2023-05-05T00:18:23.615Z,69.07
2023-05-05T00:20:51.853Z,69.07
2023-05-05T00:23:20.651Z,69.47
2023-05-05T00:25:48.814Z,69.48
2023-05-05T00:28:17.411Z,69.74
2023-05-05T00:30:45.672Z,69.85
2023-05-05T00:33:13.862Z,69.41
2023-05-05T00:35:42.545Z,69.71
2023-05-05T00:38:10.712Z,69.83
2023-05-05T00:40:38.983Z,69.96
2023-05-05T00:43:07.869Z,69.83
2023-05-05T00:45:37.573Z,69.93
2023-05-05T00:48:06.404Z,69.85
2023-05-05T00:50:35.356Z,70.11
2023-05-05T00:53:06.114Z,70.51
2023-05-05T00:55:35.609Z,70.55
2023-05-05T00:58:06.837Z,70.38
2023-05-05T01:00:35.315Z,70.40
2023-05-05T01:03:03.635Z,70.44
2023-05-05T01:05:50.397Z,70.10
2023-05-05T01:08:40.795Z,70.16
2023-05-05T01:11:31.798Z,70.35
2023-05-05T01:14:19.628Z,70.77
2023-05-05T01:16:59.579Z,70.65
2023-05-05T01:20:12.499Z,70.68
2023-05-05T01:22:47.717Z,70.82
2023-05-05T01:25:37.312Z,70.96
2023-05-05T01:28:50.954Z,70.75
2023-05-05T01:31:37.502Z,70.83
2023-05-05T01:34:09.208Z,70.97
2023-05-05T01:36:40.141Z,71.18
2023-05-05T01:39:11.490Z,71.17
2023-05-05T01:41:48.461Z,71.30
2023-05-05T01:44:19.180Z,71.30
2023-05-05T01:46:49.110Z,71.63
2023-05-05T01:49:17.325Z,71.65
2023-05-05T01:51:46.713Z,71.65
2023-05-05T01:54:15.670Z,71.98
2023-05-05T01:56:43.952Z,71.85
2023-05-05T01:59:13.146Z,71.90
2023-05-05T02:01:44.890Z,71.95
2023-05-05T02:04:14.627Z,72.02
2023-05-05T02:06:44.114Z,72.11
2023-05-05T02:09:13.416Z,72.31
2023-05-05T02:11:41.789Z,72.23
2023-05-05T02:14:10.988Z,72.35
2023-05-05T02:16:41.434Z,72.39
2023-05-05T02:19:10.215Z,72.42
2023-05-05T02:21:38.479Z,72.79
2023-05-05T02:24:08.600Z,72.44
2023-05-05T02:26:40.154Z,72.71
2023-05-05T02:29:12.176Z,72.82
2023-05-05T02:31:45.217Z,72.80
2023-05-05T02:34:16.856Z,72.70
2023-05-05T02:36:45.327Z,72.82
2023-05-05T02:39:32.136Z,72.87
2023-05-05T02:42:03.567Z,73.14
2023-05-05T02:44:33.304Z,72.96
2023-05-05T02:47:03.996Z,73.16
2023-05-05T02:49:33.220Z,73.16
2023-05-05T02:52:01.803Z,73.15
2023-05-05T02:54:33.976Z,73.34
2023-05-05T02:57:04.194Z,73.36
2023-05-05T02:59:51.205Z,73.55
2023-05-05T03:02:27.445Z,73.67
2023-05-05T03:05:15.811Z,73.85
2023-05-05T03:07:51.866Z,73.92
2023-05-05T03:10:22.195Z,74.11
2023-05-05T03:12:58.170Z,74.14
2023-05-05T03:15:36.961Z,74.30
2023-05-05T03:18:06.680Z,74.44
2023-05-05T03:20:35.562Z,74.40
2023-05-05T03:23:08.034Z,74.76
2023-05-05T03:25:43.657Z,74.69
2023-05-05T03:28:12.775Z,74.77
2023-05-05T03:30:42.176Z,74.86
2023-05-05T03:33:11.683Z,74.80
2023-05-05T03:35:40.673Z,74.82
2023-05-05T03:38:10.175Z,74.95
2023-05-05T03:40:44.134Z,74.83
2023-05-05T03:43:13.597Z,75.09
2023-05-05T03:45:41.821Z,75.16
2023-05-05T03:48:10.231Z,75.16
2023-05-05T03:50:39.640Z,75.52
2023-05-05T03:53:08.221Z,75.51
2023-05-05T03:55:36.390Z,75.53
2023-05-05T03:58:04.568Z,75.48
2023-05-05T04:00:33.563Z,75.67
2023-05-05T04:03:02.236Z,75.55
2023-05-05T04:05:30.827Z,75.79
2023-05-05T04:07:59.118Z,75.83
2023-05-05T04:10:27.581Z,76.07
2023-05-05T04:12:55.794Z,76.14
2023-05-05T04:15:24.229Z,76.37
2023-05-05T04:17:52.533Z,76.42
2023-05-05T04:20:20.783Z,76.73
2023-05-05T04:22:50.195Z,76.80
2023-05-05T04:25:20.097Z,76.91
2023-05-05T04:27:48.888Z,76.95
2023-05-05T04:30:17.485Z,77.19
2023-05-05T04:32:47.197Z,77.14
2023-05-05T04:35:15.856Z,77.21
2023-05-05T04:37:44.336Z,77.42
2023-05-05T04:40:13.331Z,77.37
2023-05-05T04:42:41.804Z,77.79
2023-05-05T04:45:11.208Z,77.75
2023-05-05T04:47:40.650Z,77.34
2023-05-05T04:50:09.934Z,77.09
2023-05-05T04:52:38.293Z,76.87
2023-05-05T04:55:07.240Z,76.65
2023-05-05T04:57:35.661Z,76.64
2023-05-05T05:00:05.589Z,76.44
2023-05-05T05:02:34.030Z,76.28
2023-05-05T05:05:02.836Z,75.95
2023-05-05T05:07:31.212Z,75.40
2023-05-05T05:09:59.599Z,75.06
2023-05-05T05:12:27.726Z,75.24
2023-05-05T05:14:56.133Z,74.78
2023-05-05T05:17:25.114Z,74.54
2023-05-05T05:19:55.341Z,74.36
2023-05-05T05:33:06.988Z,72.77
2023-05-05T05:35:36.026Z,72.02
2023-05-05T05:38:05.322Z,71.98
2023-05-05T05:40:33.609Z,71.79
2023-05-05T05:43:03.131Z,71.68
2023-05-05T05:45:31.781Z,71.75
2023-05-05T05:47:59.927Z,71.75
2023-05-05T05:50:28.859Z,71.45
2023-05-05T05:52:57.561Z,71.21
2023-05-05T05:55:26.212Z,70.99
2023-05-05T05:57:55.006Z,71.07
2023-05-05T06:00:23.483Z,71.16
2023-05-05T06:02:56.355Z,71.08
2023-05-05T06:05:27.098Z,71.33
2023-05-05T06:07:55.878Z,71.01
2023-05-05T06:10:30.324Z,70.41
2023-05-05T06:13:02.828Z,70.00
2023-05-05T06:15:31.666Z,69.56
2023-05-05T06:18:00.794Z,69.32
2023-05-05T06:20:29.154Z,69.03
2023-05-05T06:22:57.712Z,69.22
2023-05-05T06:25:27.013Z,68.73
2023-05-05T06:27:55.388Z,68.41
2023-05-05T06:30:23.562Z,68.51
2023-05-05T06:32:52.277Z,68.51
2023-05-05T06:35:21.028Z,68.36
2023-05-05T06:37:49.107Z,67.92
2023-05-05T06:40:17.482Z,67.57
2023-05-05T06:42:45.856Z,67.36
2023-05-05T06:45:17.716Z,67.46
2023-05-05T06:47:46.119Z,67.04
2023-05-05T06:50:14.269Z,66.97
2023-05-05T06:52:42.758Z,66.59
2023-05-05T06:55:10.918Z,66.21
2023-05-05T06:57:39.095Z,66.07
2023-05-05T07:00:11.524Z,65.82
2023-05-05T07:02:40.238Z,65.58
2023-05-05T07:05:08.936Z,65.07
2023-05-05T07:07:38.456Z,64.66
2023-05-05T07:10:07.913Z,64.59
2023-05-05T07:12:36.252Z,63.95
2023-05-05T07:15:15.505Z,63.53
2023-05-05T07:17:47.641Z,63.14
2023-05-05T07:20:16.401Z,62.98
2023-05-05T07:22:44.572Z,63.08
2023-05-05T07:25:12.749Z,62.92
2023-05-05T07:27:41.119Z,62.75
2023-05-05T07:30:12.585Z,62.19
2023-05-05T07:32:41.630Z,62.06
2023-05-05T07:35:10.130Z,62.01
2023-05-05T07:37:38.316Z,61.80
2023-05-05T07:40:07.591Z,61.52
2023-05-05T07:42:36.116Z,61.10
2023-05-05T07:45:05.380Z,60.96
2023-05-05T07:47:33.632Z,60.43
2023-05-05T07:50:02.256Z,60.27
2023-05-05T07:52:44.999Z,59.46
2023-05-05T07:55:16.614Z,59.13
2023-05-05T07:57:44.789Z,59.04
2023-05-05T08:00:13.791Z,58.71
2023-05-05T08:02:42.035Z,58.25
2023-05-05T08:05:11.480Z,58.03
2023-05-05T08:07:41.746Z,57.85
2023-05-05T08:10:13.224Z,57.70
2023-05-05T08:12:41.333Z,57.59
2023-05-05T08:15:10.412Z,56.74
2023-05-05T08:17:49.664Z,56.49
2023-05-05T08:20:19.720Z,55.93
2023-05-05T08:22:48.453Z,55.77
2023-05-05T08:25:16.598Z,55.68
2023-05-05T08:27:44.885Z,55.48
2023-05-05T08:30:13.528Z,55.38
2023-05-05T08:32:41.881Z,55.03
2023-05-05T08:35:10.760Z,55.22
2023-05-05T08:37:39.208Z,54.37
2023-05-05T08:40:08.085Z,53.59
2023-05-05T08:42:38.558Z,53.24
2023-05-05T08:45:09.017Z,53.28
2023-05-05T08:47:38.182Z,53.11
2023-05-05T08:50:07.821Z,52.42
2023-05-05T08:52:42.056Z,52.16
2023-05-05T08:55:24.500Z,51.47
2023-05-05T08:57:56.089Z,51.00
2023-05-05T09:00:26.673Z,50.50
2023-05-05T09:02:57.841Z,50.38
2023-05-05T09:05:26.903Z,50.06
2023-05-05T09:07:55.456Z,49.36
2023-05-05T09:10:25.268Z,48.96
2023-05-05T09:12:53.511Z,48.81
2023-05-05T09:15:21.745Z,48.50
2023-05-05T09:17:50.028Z,48.36
2023-05-05T09:20:18.376Z,47.93
2023-05-05T09:22:47.766Z,47.58
2023-05-05T09:25:17.745Z,47.19
2023-05-05T09:27:46.778Z,46.67
2023-05-05T09:30:23.760Z,46.54
2023-05-05T09:32:55.896Z,46.71
2023-05-05T09:35:24.196Z,46.40
2023-05-05T09:37:52.379Z,46.13
2023-05-05T09:40:21.549Z,46.10
2023-05-05T09:43:01.326Z,45.82
2023-05-05T09:45:29.903Z,45.68
2023-05-05T09:48:00.268Z,45.44
2023-05-05T09:50:30.964Z,45.26
2023-05-05T09:53:03.757Z,44.82
2023-05-05T09:55:32.167Z,44.40
2023-05-05T09:58:26.456Z,43.67
2023-05-05T10:00:56.201Z,43.12
2023-05-05T10:03:24.774Z,43.08
2023-05-05T10:05:57.759Z,42.44
2023-05-05T10:08:28.285Z,42.02
2023-05-05T10:11:07.232Z,42.31
2023-05-05T10:13:41.200Z,41.92
2023-05-05T10:16:09.955Z,41.65
2023-05-05T10:18:40.478Z,41.30
2023-05-05T10:21:09.421Z,40.96
2023-05-05T10:23:55.924Z,40.26
2023-05-05T10:26:26.456Z,39.58
2023-05-05T10:29:01.788Z,39.17
2023-05-05T10:31:37.788Z,38.58
2023-05-05T10:34:10.463Z,38.82
2023-05-05T10:36:39.728Z,38.35
2023-05-05T10:39:09.540Z,38.11
2023-05-05T10:41:38.242Z,37.72
2023-05-05T10:44:07.110Z,37.09
2023-05-05T10:46:35.373Z,37.14
2023-05-05T10:49:03.561Z,36.44
2023-05-05T10:51:48.452Z,35.27
2023-05-05T10:54:31.075Z,34.85
2023-05-05T10:57:02.789Z,35.08
2023-05-05T10:59:37.091Z,34.82
2023-05-05T11:02:25.684Z,34.29
2023-05-05T11:05:15.408Z,34.05
2023-05-05T11:07:45.552Z,33.98
2023-05-05T11:10:15.195Z,33.83
2023-05-05T11:13:06.995Z,33.27
2023-05-05T11:15:37.959Z,32.61
2023-05-05T11:18:08.210Z,32.50
2023-05-05T11:20:40.203Z,32.00
2023-05-05T11:23:08.278Z,31.89
2023-05-05T11:25:37.080Z,32.21
2023-05-05T11:28:16.534Z,31.61
2023-05-05T11:31:04.761Z,31.12
2023-05-05T11:33:34.145Z,30.69
2023-05-05T11:36:07.328Z,30.41
2023-05-05T11:38:42.365Z,29.96
2023-05-05T11:41:10.449Z,30.00
2023-05-05T11:43:39.325Z,29.87
2023-05-05T11:46:15.263Z,29.12
2023-05-05T11:48:52.936Z,28.47
2023-05-05T11:51:22.393Z,28.59
2023-05-05T11:53:51.067Z,28.58
2023-05-05T11:56:20.685Z,28.71
2023-05-05T11:58:50.040Z,28.03
2023-05-05T12:01:18.337Z,28.00
2023-05-05T12:03:46.754Z,27.51
2023-05-05T12:06:15.091Z,27.40
2023-05-05T12:08:43.263Z,27.58
2023-05-05T12:11:11.849Z,27.51
2023-05-05T12:13:40.028Z,27.24
2023-05-05T12:16:15.457Z,26.89
2023-05-05T12:18:43.586Z,27.29
2023-05-05T12:21:18.524Z,26.34
2023-05-05T12:23:47.054Z,25.60
2023-05-05T12:26:32.126Z,25.22
2023-05-05T12:29:01.016Z,24.93
2023-05-05T12:31:36.475Z,24.81
2023-05-05T12:34:06.471Z,24.70
2023-05-05T12:36:35.151Z,24.60
2023-05-05T12:39:05.442Z,24.00
2023-05-05T12:41:34.326Z,23.98
2023-05-05T12:44:05.404Z,23.77
2023-05-05T12:46:45.784Z,23.36
2023-05-05T12:49:14.337Z,23.37
2023-05-05T12:51:56.439Z,22.92
2023-05-05T12:54:25.362Z,22.71
2023-05-05T12:56:53.502Z,22.44
2023-05-05T12:59:21.675Z,22.98
2023-05-05T13:01:51.050Z,22.44
2023-05-05T13:04:21.511Z,22.44
2023-05-05T13:06:56.643Z,22.37
2023-05-05T13:09:26.643Z,22.55
2023-05-05T13:11:55.132Z,22.33
2023-05-05T13:14:23.821Z,22.13
2023-05-05T13:16:53.214Z,22.01
2023-05-05T13:19:21.389Z,21.97
2023-05-05T13:21:49.681Z,22.17
2023-05-05T13:26:49.691Z,22.24
2023-05-05T13:29:18.188Z,22.09
2023-05-05T13:31:46.425Z,21.97
2023-05-05T13:34:14.732Z,22.21
2023-05-05T13:36:42.792Z,22.17
2023-05-05T13:39:11.502Z,22.29
2023-05-05T13:41:39.859Z,22.18
2023-05-05T13:44:08.033Z,22.89
2023-05-05T13:46:36.335Z,23.13
2023-05-05T13:49:04.569Z,23.34
2023-05-05T13:51:35.135Z,23.25
2023-05-05T13:54:03.383Z,23.74
2023-05-05T13:56:31.755Z,23.91
2023-05-05T13:59:00.036Z,23.91
2023-05-05T14:01:28.482Z,24.27
2023-05-05T14:03:57.746Z,24.25
2023-05-05T14:06:26.535Z,24.04
2023-05-05T14:08:54.762Z,24.33
2023-05-05T14:11:23.022Z,24.84
2023-05-05T14:13:52.113Z,25.44
2023-05-05T14:16:20.381Z,25.64
2023-05-05T14:18:48.584Z,25.22
2023-05-05T14:21:16.963Z,25.10
2023-05-05T14:23:45.552Z,25.48
2023-05-05T14:26:13.712Z,25.30
2023-05-05T14:28:42.599Z,25.15
2023-05-05T14:31:11.400Z,24.96
2023-05-05T14:33:39.560Z,25.01
2023-05-05T14:36:08.353Z,24.99
2023-05-05T14:38:36.655Z,24.84
2023-05-05T14:41:05.298Z,24.81
2023-05-05T14:43:33.397Z,25.04
2023-05-05T14:46:06.828Z,25.16
2023-05-05T14:48:35.660Z,25.40
2023-05-05T14:51:04.849Z,25.35
2023-05-05T14:53:33.232Z,25.90
2023-05-05T14:56:02.711Z,26.48
2023-05-05T14:58:31.254Z,26.68
2023-05-05T15:01:00.724Z,26.72
2023-05-05T15:03:28.973Z,26.66
2023-05-05T15:05:57.368Z,25.86
2023-05-05T15:08:25.650Z,26.05
2023-05-05T15:10:53.920Z,26.06
2023-05-05T15:13:22.186Z,25.95
2023-05-05T15:15:51.484Z,26.34
2023-05-05T15:18:19.663Z,26.40
2023-05-05T15:20:47.749Z,26.49
2023-05-05T15:23:16.315Z,26.91
2023-05-05T15:25:44.489Z,26.80
2023-05-05T15:28:12.663Z,27.10
2023-05-05T15:30:40.827Z,27.34
2023-05-05T15:33:08.894Z,27.61
2023-05-05T15:35:37.070Z,27.84
2023-05-05T15:38:05.138Z,27.96
2023-05-05T15:40:33.316Z,28.16
2023-05-05T15:43:01.691Z,28.27
2023-05-05T15:45:29.860Z,28.24
2023-05-05T15:47:58.068Z,28.27
2023-05-05T15:50:26.206Z,28.45
2023-05-05T15:52:57.114Z,28.66
2023-05-05T15:55:26.039Z,28.72
2023-05-05T15:57:54.631Z,28.61
2023-05-05T16:00:22.802Z,28.90
2023-05-05T16:02:51.015Z,28.93
2023-05-05T16:05:21.353Z,29.18
2023-05-05T16:07:52.112Z,29.31
2023-05-05T16:10:20.595Z,29.44
2023-05-05T16:12:48.975Z,29.64
2023-05-05T16:15:17.160Z,29.61
2023-05-05T16:17:45.268Z,29.52
2023-05-05T16:20:14.176Z,29.61
2023-05-05T16:22:42.484Z,29.55
2023-05-05T16:25:11.353Z,29.75
2023-05-05T16:27:39.645Z,29.81
2023-05-05T16:30:09.060Z,30.11
2023-05-05T16:32:37.123Z,30.34
2023-05-05T16:35:07.442Z,30.65
2023-05-05T16:37:35.925Z,30.90
2023-05-05T16:40:05.631Z,31.11
2023-05-05T16:42:33.724Z,31.34
2023-05-05T16:45:02.068Z,31.65
2023-05-05T16:47:30.301Z,31.71
2023-05-05T16:49:58.624Z,31.74
2023-05-05T16:52:26.903Z,32.19
2023-05-05T16:54:56.819Z,32.35
2023-05-05T16:57:24.877Z,32.45
2023-05-05T16:59:55.812Z,32.66
2023-05-05T17:02:23.936Z,32.97
2023-05-05T17:04:52.873Z,33.27
2023-05-05T17:07:21.560Z,33.45
2023-05-05T17:09:49.614Z,33.61
2023-05-05T17:12:17.917Z,33.68
2023-05-05T17:14:46.206Z,33.96
2023-05-05T17:17:14.561Z,34.19
2023-05-05T17:19:42.947Z,34.39
2023-05-05T17:22:11.104Z,34.46
2023-05-05T17:24:39.177Z,34.69
2023-05-05T17:27:07.376Z,35.00
2023-05-05T17:29:40.868Z,35.43
2023-05-05T17:32:09.413Z,35.74
2023-05-05T17:34:37.907Z,35.98
2023-05-05T17:37:06.078Z,36.23
2023-05-05T17:39:34.712Z,36.68
2023-05-05T17:42:03.065Z,36.89
2023-05-05T17:44:32.749Z,37.07
2023-05-05T17:47:02.861Z,37.51
2023-05-05T17:49:31.344Z,37.82
2023-05-05T17:51:59.547Z,38.08
2023-05-05T17:54:27.689Z,38.38
2023-05-05T17:56:55.772Z,38.63
2023-05-05T17:59:23.835Z,38.83
2023-05-05T18:01:52.006Z,39.17
2023-05-05T18:04:20.080Z,39.44
2023-05-05T18:06:48.466Z,39.72
2023-05-05T18:09:17.445Z,39.92
2023-05-05T18:11:45.717Z,40.28
2023-05-05T18:14:13.806Z,40.59
2023-05-05T18:16:47.766Z,40.83
2023-05-05T18:19:16.994Z,41.00
2023-05-05T18:21:45.165Z,41.34
2023-05-05T18:24:20.000Z,41.57
2023-05-05T18:26:50.723Z,41.75
2023-05-05T18:29:20.234Z,42.03
2023-05-05T18:31:53.132Z,42.32
2023-05-05T18:34:21.521Z,42.49
2023-05-05T18:36:51.381Z,42.72
2023-05-05T18:39:20.435Z,43.01
2023-05-05T18:41:48.570Z,43.12
2023-05-05T18:44:16.733Z,43.17
2023-05-05T18:46:47.057Z,43.50
2023-05-05T18:49:15.644Z,43.53
2023-05-05T18:51:44.233Z,43.77
2023-05-05T18:54:12.395Z,44.03
2023-05-05T18:56:40.876Z,44.15
2023-05-05T18:59:08.952Z,44.26
2023-05-05T19:01:37.145Z,44.62
2023-05-05T19:06:53.637Z,44.98
2023-05-05T19:09:22.012Z,45.15
2023-05-05T19:11:50.083Z,45.33
2023-05-05T19:14:18.254Z,45.48
2023-05-05T19:16:46.456Z,45.75
2023-05-05T19:19:14.702Z,45.91
2023-05-05T19:21:42.874Z,46.06
2023-05-05T19:24:11.797Z,46.25
2023-05-05T19:26:40.058Z,46.31
2023-05-05T19:29:08.307Z,46.67
2023-05-05T19:31:36.834Z,46.80
2023-05-05T19:34:05.474Z,46.99
2023-05-05T19:36:34.788Z,47.21
2023-05-05T19:39:04.179Z,47.41
2023-05-05T19:41:32.862Z,47.55
2023-05-05T19:44:01.028Z,47.73
2023-05-05T19:46:29.330Z,47.72
2023-05-05T19:48:57.577Z,48.02
2023-05-05T19:51:26.362Z,48.31
2023-05-05T19:53:54.433Z,48.38
2023-05-05T19:56:23.321Z,48.45
2023-05-05T19:59:06.474Z,48.65
2023-05-05T20:01:35.436Z,48.82
2023-05-05T20:04:03.981Z,49.00
2023-05-05T20:06:33.124Z,49.12
2023-05-05T20:09:02.105Z,49.21
2023-05-05T20:11:30.579Z,49.36
2023-05-05T20:13:59.174Z,49.66
2023-05-05T20:16:27.475Z,49.76
2023-05-05T20:18:56.003Z,49.80
2023-05-05T20:21:24.089Z,49.89
2023-05-05T20:23:54.665Z,49.92
2023-05-05T20:26:24.600Z,50.26
2023-05-05T20:28:53.034Z,50.27
2023-05-05T20:31:21.368Z,50.45
2023-05-05T20:33:49.682Z,50.73
2023-05-05T20:36:18.255Z,50.64
2023-05-05T20:38:46.421Z,50.81
2023-05-05T20:41:14.597Z,51.05
2023-05-05T20:43:42.871Z,51.10
2023-05-05T20:46:13.893Z,51.09
2023-05-05T20:48:42.942Z,51.36
2023-05-05T20:51:11.508Z,51.37
2023-05-05T20:53:39.683Z,51.53
2023-05-05T20:56:08.789Z,51.68
2023-05-05T20:58:37.348Z,51.81
2023-05-05T21:01:05.551Z,51.91
2023-05-05T21:03:33.781Z,52.29
2023-05-05T21:06:02.156Z,52.33
2023-05-05T21:08:30.840Z,52.49
2023-05-05T21:10:58.907Z,52.55
2023-05-05T21:13:28.100Z,52.61
2023-05-05T21:15:56.278Z,52.74
2023-05-05T21:18:26.083Z,52.64
2023-05-05T21:20:54.365Z,52.67
2023-05-05T21:23:22.527Z,53.14
2023-05-05T21:25:50.805Z,53.07
2023-05-05T21:28:18.977Z,53.05
2023-05-05T21:30:59.411Z,53.17
2023-05-05T21:33:35.395Z,53.25
2023-05-05T21:36:04.059Z,53.40
2023-05-05T21:38:32.147Z,53.51
2023-05-05T21:41:00.529Z,53.56
2023-05-05T21:43:29.006Z,54.05
2023-05-05T21:46:01.024Z,53.78
2023-05-05T21:48:29.459Z,53.81
2023-05-05T21:50:57.824Z,54.12
2023-05-05T21:53:25.998Z,54.19
2023-05-05T21:55:54.177Z,54.24
2023-05-05T21:58:25.046Z,54.21
2023-05-05T22:00:53.381Z,54.38
2023-05-05T22:03:21.718Z,54.53
2023-05-05T22:05:49.828Z,54.62
2023-05-05T22:08:19.231Z,54.89
2023-05-05T22:10:47.812Z,54.86
2023-05-05T22:13:16.168Z,55.01
2023-05-05T22:15:47.176Z,55.18
2023-05-05T22:18:16.117Z,55.26
2023-05-05T22:20:44.387Z,55.36
2023-05-05T22:23:14.166Z,55.40
2023-05-05T22:25:42.379Z,55.64
2023-05-05T22:28:11.673Z,55.50
2023-05-05T22:30:39.842Z,55.62
2023-05-05T22:33:08.197Z,55.73
2023-05-05T22:35:37.824Z,55.99
2023-05-05T22:38:06.720Z,55.92
2023-05-05T22:40:36.013Z,56.02
2023-05-05T22:43:04.199Z,56.23
2023-05-05T22:45:33.174Z,56.18
2023-05-05T22:48:01.411Z,56.47
2023-05-05T22:50:29.627Z,56.41
2023-05-05T22:52:57.697Z,56.64
2023-05-05T22:55:26.172Z,56.75
2023-05-05T22:57:54.452Z,56.84
2023-05-05T23:00:22.930Z,56.94
2023-05-05T23:02:51.136Z,56.93
2023-05-05T23:05:19.375Z,57.18
2023-05-05T23:07:47.557Z,57.35
2023-05-05T23:10:15.823Z,57.37
2023-05-05T23:12:44.026Z,57.44
2023-05-05T23:15:12.405Z,57.36
2023-05-05T23:17:40.864Z,57.66
2023-05-05T23:20:12.093Z,57.76
2023-05-05T23:22:40.176Z,57.81
2023-05-05T23:25:09.257Z,57.89
2023-05-05T23:27:39.627Z,57.81
2023-05-05T23:30:09.139Z,57.92
2023-05-05T23:32:37.670Z,58.20
2023-05-05T23:35:06.815Z,58.12
2023-05-05T23:37:35.041Z,58.26
2023-05-05T23:40:03.411Z,58.45
2023-05-05T23:42:31.587Z,58.45
2023-05-05T23:44:59.763Z,58.73
2023-05-05T23:47:27.846Z,58.89
2023-05-05T23:49:56.104Z,58.87
2023-05-05T23:52:24.400Z,58.87
2023-05-05T23:54:52.558Z,58.95
2023-05-05T23:57:20.921Z,58.89
2023-05-05T23:59:49.095Z,58.92
